createdAt,value
2022-09-12T00:00:10.922Z,13.87
2022-09-12T00:02:40.768Z,13.94
2022-09-12T00:08:16.516Z,13.87
2022-09-12T00:10:43.872Z,13.88
2022-09-12T00:13:11.350Z,13.94
2022-09-12T00:15:40.078Z,13.86
2022-09-12T00:18:08.230Z,13.82
2022-09-12T00:20:34.552Z,13.82
2022-09-12T00:23:01.034Z,13.75
2022-09-12T00:25:30.545Z,13.75
2022-09-12T00:27:57.171Z,13.74
2022-09-12T00:30:23.884Z,13.78
2022-09-12T00:32:51.427Z,13.69
2022-09-12T00:35:17.737Z,13.60
2022-09-12T00:37:44.049Z,13.60
2022-09-12T00:40:10.887Z,13.56
2022-09-12T00:42:37.207Z,13.52
2022-09-12T00:45:06.007Z,13.49
2022-09-12T00:47:33.528Z,13.51
2022-09-12T00:50:10.982Z,13.53
2022-09-12T00:52:44.112Z,13.49
2022-09-12T00:55:13.139Z,13.55
2022-09-12T00:57:45.448Z,13.49
2022-09-12T01:00:15.568Z,13.48
2022-09-12T01:02:49.123Z,13.42
2022-09-12T01:05:15.867Z,13.42
2022-09-12T01:07:44.462Z,13.39
2022-09-12T01:10:11.386Z,13.37
2022-09-12T01:12:40.925Z,13.33
2022-09-12T01:15:08.073Z,13.31
2022-09-12T01:18:09.143Z,13.39
2022-09-12T01:20:45.975Z,13.34
2022-09-12T01:23:43.849Z,13.27
2022-09-12T01:26:25.436Z,13.27
2022-09-12T01:29:11.451Z,13.25
2022-09-12T01:31:47.448Z,13.20
2022-09-12T01:34:28.137Z,13.24
2022-09-12T01:37:10.735Z,13.26
2022-09-12T01:40:10.331Z,13.30
2022-09-12T01:42:53.651Z,13.16
2022-09-12T01:45:30.877Z,13.16
2022-09-12T01:48:07.742Z,13.15
2022-09-12T01:50:44.220Z,13.15
2022-09-12T01:53:26.254Z,13.00
2022-09-12T01:56:08.708Z,12.99
2022-09-12T01:58:49.490Z,12.97
2022-09-12T02:01:26.510Z,12.93
2022-09-12T02:04:08.923Z,13.05
2022-09-12T02:06:43.868Z,12.98
2022-09-12T02:09:18.288Z,12.88
2022-09-12T02:11:46.127Z,12.91
2022-09-12T02:14:18.549Z,12.82
2022-09-12T02:16:51.252Z,12.83
2022-09-12T02:19:22.183Z,12.79
2022-09-12T02:21:53.908Z,12.81
2022-09-12T02:24:22.490Z,12.74
2022-09-12T02:26:54.688Z,12.77
2022-09-12T02:29:21.079Z,12.76
2022-09-12T02:31:53.081Z,12.81
2022-09-12T02:35:06.882Z,12.85
2022-09-12T02:37:54.936Z,12.79
2022-09-12T02:40:22.874Z,12.74
2022-09-12T02:42:50.398Z,12.79
2022-09-12T02:45:18.115Z,12.75
2022-09-12T02:48:02.289Z,12.69
2022-09-12T02:50:29.301Z,12.70
2022-09-12T02:52:59.929Z,12.66
2022-09-12T02:55:28.017Z,12.64
2022-09-12T02:57:54.368Z,12.63
2022-09-12T03:00:20.926Z,12.59
2022-09-12T03:03:05.579Z,12.52
2022-09-12T03:05:33.379Z,12.43
2022-09-12T03:08:14.580Z,12.52
2022-09-12T03:10:55.401Z,12.58
2022-09-12T03:13:41.588Z,12.58
2022-09-12T03:16:26.415Z,12.57
2022-09-12T03:19:09.529Z,12.57
2022-09-12T03:21:48.192Z,12.60
2022-09-12T03:24:29.559Z,12.68
2022-09-12T03:27:20.791Z,12.64
2022-09-12T03:29:48.729Z,12.54
2022-09-12T03:32:15.757Z,12.61
2022-09-12T03:34:42.101Z,12.61
2022-09-12T03:37:08.448Z,12.57
2022-09-12T03:39:34.871Z,12.58
2022-09-12T03:42:01.194Z,12.56
2022-09-12T03:44:27.480Z,12.58
2022-09-12T03:46:53.820Z,12.52
2022-09-12T03:49:20.153Z,12.54
2022-09-12T03:51:46.469Z,12.51
2022-09-12T03:54:12.807Z,12.51
2022-09-12T03:56:40.994Z,12.49
2022-09-12T03:59:07.742Z,12.50
2022-09-12T04:01:34.585Z,12.51
2022-09-12T04:04:00.991Z,12.48
2022-09-12T04:06:27.427Z,12.39
2022-09-12T04:08:55.043Z,12.32
2022-09-12T04:11:22.665Z,12.34
2022-09-12T04:13:49.729Z,12.32
2022-09-12T04:16:17.469Z,12.30
2022-09-12T04:18:44.363Z,12.27
2022-09-12T04:21:14.363Z,12.21
2022-09-12T04:23:40.823Z,12.17
2022-09-12T04:26:08.115Z,12.14
2022-09-12T04:28:35.976Z,12.15
2022-09-12T04:31:04.714Z,12.12
2022-09-12T04:33:31.224Z,12.07
2022-09-12T04:36:06.198Z,12.16
2022-09-12T04:38:33.355Z,12.19
2022-09-12T04:40:59.932Z,12.19
2022-09-12T04:43:26.260Z,12.19
2022-09-12T04:45:52.608Z,12.11
2022-09-12T04:48:19.019Z,12.00
2022-09-12T04:50:45.329Z,11.99
2022-09-12T04:53:11.609Z,11.95
2022-09-12T04:55:37.911Z,11.95
2022-09-12T04:58:04.300Z,11.91
2022-09-12T05:00:30.635Z,11.91
2022-09-12T05:02:56.900Z,11.94
2022-09-12T05:05:23.244Z,11.94
2022-09-12T05:07:49.634Z,11.80
2022-09-12T05:10:16.362Z,11.85
2022-09-12T05:12:42.774Z,11.93
2022-09-12T05:15:09.640Z,11.91
2022-09-12T05:17:36.020Z,11.85
2022-09-12T05:20:03.348Z,11.83
2022-09-12T05:22:29.641Z,11.82
2022-09-12T05:24:55.910Z,11.83
2022-09-12T05:27:22.217Z,11.76
2022-09-12T05:29:48.583Z,11.88
2022-09-12T05:32:14.902Z,11.91
2022-09-12T05:34:41.304Z,11.95
2022-09-12T05:37:07.776Z,12.01
2022-09-12T05:39:34.091Z,12.03
2022-09-12T05:42:00.404Z,12.08
2022-09-12T05:44:26.851Z,12.12
2022-09-12T05:46:53.536Z,12.21
2022-09-12T05:49:21.331Z,12.23
2022-09-12T05:51:47.695Z,12.31
2022-09-12T05:54:17.981Z,12.35
2022-09-12T05:56:45.440Z,12.42
2022-09-12T05:59:17.631Z,12.56
2022-09-12T06:01:44.904Z,12.56
2022-09-12T06:04:12.107Z,12.61
2022-09-12T06:06:41.688Z,12.68
2022-09-12T06:09:08.708Z,12.68
2022-09-12T06:11:37.178Z,12.74
2022-09-12T06:14:04.146Z,12.80
2022-09-12T06:16:32.121Z,12.84
2022-09-12T06:19:01.219Z,12.85
2022-09-12T06:21:28.333Z,12.87
2022-09-12T06:23:55.476Z,12.94
2022-09-12T06:26:23.429Z,12.98
2022-09-12T06:28:50.324Z,13.10
2022-09-12T06:31:19.456Z,13.22
2022-09-12T06:33:48.731Z,13.25
2022-09-12T06:36:21.180Z,13.31
2022-09-12T06:38:48.680Z,13.46
2022-09-12T06:41:15.762Z,13.58
2022-09-12T06:43:42.820Z,13.65
2022-09-12T06:46:10.385Z,13.77
2022-09-12T06:48:41.555Z,13.80
2022-09-12T06:51:15.078Z,13.94
2022-09-12T06:53:42.537Z,14.02
2022-09-12T06:56:19.589Z,14.04
2022-09-12T06:58:47.513Z,14.22
2022-09-12T07:01:15.229Z,14.24
2022-09-12T07:03:42.779Z,14.28
2022-09-12T07:06:13.746Z,14.40
2022-09-12T07:08:40.797Z,14.45
2022-09-12T07:11:14.768Z,14.55
2022-09-12T07:13:42.668Z,14.58
2022-09-12T07:16:10.473Z,14.71
2022-09-12T07:18:38.299Z,14.95
2022-09-12T07:21:07.308Z,14.92
2022-09-12T07:23:33.792Z,14.95
2022-09-12T07:26:01.124Z,15.10
2022-09-12T07:28:30.133Z,15.21
2022-09-12T07:30:56.991Z,15.37
2022-09-12T07:33:27.300Z,15.40
2022-09-12T07:35:54.345Z,15.55
2022-09-12T07:38:21.425Z,15.55
2022-09-12T07:40:47.738Z,15.66
2022-09-12T07:43:14.157Z,15.76
2022-09-12T07:45:42.194Z,15.94
2022-09-12T07:48:09.328Z,15.98
2022-09-12T07:50:36.639Z,15.86
2022-09-12T07:53:04.447Z,16.19
2022-09-12T07:55:31.365Z,16.28
2022-09-12T07:57:57.876Z,16.55
2022-09-12T08:00:24.891Z,16.59
2022-09-12T08:02:52.642Z,16.50
2022-09-12T08:05:20.177Z,16.69
2022-09-12T08:07:47.218Z,16.73
2022-09-12T08:10:13.730Z,16.87
2022-09-12T08:12:40.004Z,17.02
2022-09-12T08:15:06.864Z,17.38
2022-09-12T08:17:33.164Z,17.34
2022-09-12T08:19:59.580Z,17.44
2022-09-12T08:22:25.960Z,17.63
2022-09-12T08:24:52.615Z,17.83
2022-09-12T08:27:18.973Z,17.85
2022-09-12T08:29:45.307Z,17.81
2022-09-12T08:32:11.592Z,18.00
2022-09-12T08:34:37.907Z,18.23
2022-09-12T08:37:04.300Z,18.37
2022-09-12T08:39:30.634Z,18.51
2022-09-12T08:42:03.145Z,18.56
2022-09-12T08:44:47.949Z,18.75
2022-09-12T08:47:26.894Z,18.72
2022-09-12T08:50:09.516Z,18.84
2022-09-12T08:52:58.623Z,18.85
2022-09-12T08:55:35.990Z,19.37
2022-09-12T08:58:13.251Z,19.45
2022-09-12T09:01:07.353Z,19.44
2022-09-12T09:03:58.393Z,19.71
2022-09-12T09:06:48.080Z,19.68
2022-09-12T09:09:32.647Z,20.05
2022-09-12T09:12:03.611Z,20.23
2022-09-12T09:14:54.926Z,20.23
2022-09-12T09:17:30.039Z,19.92
2022-09-12T09:20:13.443Z,20.01
2022-09-12T09:23:01.168Z,20.02
2022-09-12T09:25:48.764Z,20.43
2022-09-12T09:28:23.754Z,20.64
2022-09-12T09:30:50.392Z,20.52
2022-09-12T09:33:23.446Z,20.47
2022-09-12T09:36:36.303Z,20.82
2022-09-12T09:39:08.939Z,21.21
2022-09-12T09:42:07.443Z,21.23
2022-09-12T09:44:33.816Z,21.10
2022-09-12T09:47:01.040Z,21.12
2022-09-12T09:49:31.714Z,21.00
2022-09-12T09:52:00.813Z,21.06
2022-09-12T09:54:40.611Z,21.30
2022-09-12T09:57:35.031Z,21.35
2022-09-12T10:00:26.601Z,21.74
2022-09-12T10:03:02.955Z,21.77
2022-09-12T10:05:29.664Z,21.79
2022-09-12T10:07:56.038Z,21.96
2022-09-12T10:10:25.394Z,21.91
2022-09-12T10:13:07.348Z,22.22
2022-09-12T10:15:34.615Z,22.37
2022-09-12T10:18:02.992Z,22.55
2022-09-12T10:20:44.815Z,22.32
2022-09-12T10:23:37.435Z,22.48
2022-09-12T10:26:09.888Z,22.51
2022-09-12T10:28:43.347Z,22.40
2022-09-12T10:31:15.445Z,22.64
2022-09-12T10:33:47.484Z,22.66
2022-09-12T10:36:15.544Z,22.80
2022-09-12T10:38:49.673Z,22.90
2022-09-12T10:41:16.123Z,23.42
2022-09-12T10:43:42.974Z,23.48
2022-09-12T10:46:18.478Z,23.29
2022-09-12T10:48:53.016Z,23.50
2022-09-12T10:51:25.206Z,23.71
2022-09-12T10:53:54.614Z,23.80
2022-09-12T10:56:26.064Z,24.03
2022-09-12T10:59:19.883Z,24.02
2022-09-12T11:01:59.728Z,24.40
2022-09-12T11:04:28.946Z,24.41
2022-09-12T11:07:20.538Z,24.22
2022-09-12T11:09:56.233Z,24.11
2022-09-12T11:12:47.260Z,24.27
2022-09-12T11:15:52.031Z,24.33
2022-09-12T11:18:50.934Z,24.61
2022-09-12T11:21:34.007Z,24.86
2022-09-12T11:24:37.553Z,24.89
2022-09-12T11:27:34.981Z,25.07
2022-09-12T11:30:12.281Z,25.07
2022-09-12T11:32:59.837Z,25.11
2022-09-12T11:35:29.384Z,25.40
2022-09-12T11:38:36.224Z,25.28
2022-09-12T11:41:07.192Z,25.38
2022-09-12T11:43:56.676Z,25.49
2022-09-12T11:46:39.283Z,25.52
2022-09-12T11:49:21.087Z,25.24
2022-09-12T11:52:15.209Z,25.59
2022-09-12T11:55:03.839Z,25.74
2022-09-12T11:57:39.703Z,25.95
2022-09-12T12:00:17.635Z,26.13
2022-09-12T12:02:43.952Z,25.60
2022-09-12T12:05:28.764Z,25.51
2022-09-12T12:08:04.447Z,25.29
2022-09-12T12:10:39.205Z,24.88
2022-09-12T12:13:13.313Z,25.22
2022-09-12T12:15:47.665Z,25.57
2022-09-12T12:18:22.418Z,25.58
2022-09-12T12:20:49.602Z,25.75
2022-09-12T12:23:32.063Z,25.81
2022-09-12T12:26:01.771Z,25.01
2022-09-12T12:28:43.027Z,25.36
2022-09-12T12:31:10.447Z,25.07
2022-09-12T12:33:39.806Z,25.15
2022-09-12T12:36:09.484Z,25.49
2022-09-12T12:38:37.020Z,25.36
2022-09-12T12:41:18.341Z,25.44
2022-09-12T12:43:48.451Z,25.66
2022-09-12T12:46:16.068Z,25.78
2022-09-12T12:49:26.744Z,25.51
2022-09-12T12:51:53.037Z,25.34
2022-09-12T12:54:27.213Z,25.68
2022-09-12T12:57:22.623Z,25.60
2022-09-12T12:59:57.939Z,25.65
2022-09-12T13:02:32.577Z,25.73
2022-09-12T13:05:04.287Z,25.55
2022-09-12T13:07:37.785Z,25.76
2022-09-12T13:10:07.197Z,25.99
2022-09-12T13:12:46.303Z,25.97
2022-09-12T13:15:37.571Z,25.64
2022-09-12T13:18:07.473Z,25.72
2022-09-12T13:20:44.692Z,25.79
2022-09-12T13:23:25.751Z,25.45
2022-09-12T13:25:56.497Z,25.23
2022-09-12T13:28:24.047Z,25.26
2022-09-12T13:31:18.327Z,25.37
2022-09-12T13:33:50.871Z,25.59
2022-09-12T13:36:26.299Z,26.17
2022-09-12T13:39:10.284Z,26.01
2022-09-12T13:41:51.801Z,25.81
2022-09-12T13:44:21.623Z,25.59
2022-09-12T13:46:48.924Z,25.50
2022-09-12T13:49:30.277Z,25.40
2022-09-12T13:52:03.205Z,25.34
2022-09-12T13:54:30.986Z,25.36
2022-09-12T13:56:57.558Z,25.42
2022-09-12T13:59:24.639Z,25.41
2022-09-12T14:01:51.310Z,25.62
2022-09-12T14:04:42.137Z,24.91
2022-09-12T14:07:20.966Z,24.79
2022-09-12T14:09:59.366Z,24.81
2022-09-12T14:12:30.177Z,24.99
2022-09-12T14:14:57.230Z,25.08
2022-09-12T14:17:31.394Z,25.23
2022-09-12T14:20:03.322Z,25.07
2022-09-12T14:22:30.292Z,25.24
2022-09-12T14:24:59.528Z,25.19
2022-09-12T14:27:30.043Z,25.17
2022-09-12T14:30:23.212Z,24.76
2022-09-12T14:33:05.566Z,24.83
2022-09-12T14:35:33.063Z,24.77
2022-09-12T14:38:08.124Z,24.73
2022-09-12T14:40:42.367Z,24.76
2022-09-12T14:43:20.018Z,24.82
2022-09-12T14:45:54.347Z,24.82
2022-09-12T14:48:21.183Z,24.71
2022-09-12T14:50:52.395Z,24.85
2022-09-12T14:53:18.638Z,24.83
2022-09-12T14:56:03.523Z,24.87
2022-09-12T14:58:30.167Z,24.73
2022-09-12T15:00:59.452Z,24.85
2022-09-12T15:03:37.703Z,24.84
2022-09-12T15:06:08.855Z,24.96
2022-09-12T15:08:35.380Z,24.88
2022-09-12T15:11:01.762Z,24.85
2022-09-12T15:13:28.847Z,24.74
2022-09-12T15:15:57.670Z,24.71
2022-09-12T15:18:27.190Z,24.66
2022-09-12T15:21:02.121Z,24.43
2022-09-12T15:23:38.025Z,24.55
2022-09-12T15:26:04.992Z,24.54
2022-09-12T15:28:32.180Z,24.38
2022-09-12T15:31:05.856Z,24.52
2022-09-12T15:33:32.439Z,24.51
2022-09-12T15:35:58.790Z,24.44
2022-09-12T15:38:26.750Z,24.46
2022-09-12T15:40:53.887Z,24.50
2022-09-12T15:43:21.765Z,24.57
2022-09-12T15:45:50.364Z,24.43
2022-09-12T15:48:16.886Z,24.33
2022-09-12T15:50:43.195Z,24.24
2022-09-12T15:53:14.941Z,24.34
2022-09-12T15:55:41.648Z,24.32
2022-09-12T15:58:09.051Z,24.25
2022-09-12T16:00:35.594Z,24.24
2022-09-12T16:03:02.020Z,24.19
2022-09-12T16:05:29.460Z,24.08
2022-09-12T16:07:55.754Z,24.12
2022-09-12T16:10:25.646Z,24.06
2022-09-12T16:12:52.393Z,24.12
2022-09-12T16:15:21.471Z,24.11
2022-09-12T16:17:48.102Z,23.92
2022-09-12T16:20:15.128Z,23.93
2022-09-12T16:22:42.244Z,23.83
2022-09-12T16:25:09.046Z,23.81
2022-09-12T16:27:36.176Z,23.76
2022-09-12T16:30:03.989Z,23.72
2022-09-12T16:32:31.379Z,23.68
2022-09-12T16:34:57.846Z,23.59
2022-09-12T16:37:24.378Z,23.63
2022-09-12T16:39:52.283Z,23.50
2022-09-12T16:42:19.289Z,23.41
2022-09-12T16:44:46.921Z,23.38
2022-09-12T16:47:14.710Z,23.23
2022-09-12T16:49:41.070Z,23.20
2022-09-12T16:52:08.047Z,23.15
2022-09-12T16:54:34.372Z,23.08
2022-09-12T16:57:00.694Z,22.97
2022-09-12T16:59:27.000Z,22.92
2022-09-12T17:01:53.462Z,22.88
2022-09-12T17:04:23.415Z,22.78
2022-09-12T17:06:50.199Z,22.71
2022-09-12T17:09:18.579Z,22.68
2022-09-12T17:11:50.172Z,22.64
2022-09-12T17:14:16.784Z,22.59
2022-09-12T17:16:50.784Z,22.57
2022-09-12T17:19:21.969Z,22.52
2022-09-12T17:21:49.869Z,22.48
2022-09-12T17:24:17.725Z,22.40
2022-09-12T17:26:44.157Z,22.33
2022-09-12T17:29:14.612Z,22.19
2022-09-12T17:31:42.508Z,22.13
2022-09-12T17:34:09.888Z,22.04
2022-09-12T17:36:36.628Z,21.96
2022-09-12T17:39:04.007Z,21.92
2022-09-12T17:41:34.002Z,21.77
2022-09-12T17:44:02.309Z,21.65
2022-09-12T17:46:37.312Z,21.51
2022-09-12T17:49:06.020Z,21.50
2022-09-12T17:51:32.468Z,21.40
2022-09-12T17:54:01.561Z,21.34
2022-09-12T17:56:30.648Z,21.23
2022-09-12T17:58:58.299Z,21.11
2022-09-12T18:01:43.732Z,21.03
2022-09-12T18:04:10.734Z,20.89
2022-09-12T18:06:37.471Z,20.80
2022-09-12T18:09:06.416Z,20.72
2022-09-12T18:11:33.260Z,20.65
2022-09-12T18:14:00.316Z,20.58
2022-09-12T18:16:28.381Z,20.56
2022-09-12T18:18:55.305Z,20.43
2022-09-12T18:21:21.651Z,20.33
2022-09-12T18:23:47.965Z,20.24
2022-09-12T18:26:14.552Z,20.19
2022-09-12T18:28:43.151Z,20.07
2022-09-12T18:31:12.754Z,20.02
2022-09-12T18:33:39.092Z,19.87
2022-09-12T18:36:06.634Z,19.81
2022-09-12T18:38:33.205Z,19.72
2022-09-12T18:41:13.196Z,19.67
2022-09-12T18:43:39.520Z,19.65
2022-09-12T18:46:07.977Z,19.65
2022-09-12T18:48:34.680Z,19.64
2022-09-12T18:51:14.571Z,19.52
2022-09-12T18:53:41.352Z,19.49
2022-09-12T18:56:12.348Z,19.50
2022-09-12T18:58:40.859Z,19.39
2022-09-12T19:01:15.568Z,19.32
2022-09-12T19:03:42.531Z,19.31
2022-09-12T19:06:20.752Z,19.16
2022-09-12T19:08:48.893Z,19.10
2022-09-12T19:11:16.082Z,19.05
2022-09-12T19:13:44.591Z,19.01
2022-09-12T19:16:14.721Z,18.97
2022-09-12T19:18:41.202Z,18.95
2022-09-12T19:21:14.712Z,18.91
2022-09-12T19:23:41.552Z,18.82
2022-09-12T19:26:11.329Z,18.69
2022-09-12T19:28:38.162Z,18.55
2022-09-12T19:31:06.256Z,18.51
2022-09-12T19:33:32.786Z,18.41
2022-09-12T19:36:04.525Z,18.36
2022-09-12T19:38:31.079Z,18.42
2022-09-12T19:41:02.509Z,18.40
2022-09-12T19:43:30.597Z,18.32
2022-09-12T19:45:57.426Z,18.29
2022-09-12T19:48:24.166Z,18.22
2022-09-12T19:50:50.773Z,18.18
2022-09-12T19:53:18.492Z,18.16
2022-09-12T19:55:45.836Z,18.13
2022-09-12T19:58:13.217Z,18.07
2022-09-12T20:00:39.939Z,18.01
2022-09-12T20:03:06.349Z,18.02
2022-09-12T20:05:33.302Z,17.97
2022-09-12T20:08:00.083Z,17.89
2022-09-12T20:10:26.656Z,17.76
2022-09-12T20:12:53.000Z,17.69
2022-09-12T20:15:19.349Z,17.61
2022-09-12T20:17:45.656Z,17.50
2022-09-12T20:20:12.036Z,17.49
2022-09-12T20:22:40.169Z,17.43
2022-09-12T20:25:07.209Z,17.32
2022-09-12T20:27:33.611Z,17.18
2022-09-12T20:29:59.929Z,17.13
2022-09-12T20:32:28.229Z,17.20
2022-09-12T20:34:56.230Z,17.16
2022-09-12T20:37:22.646Z,17.14
2022-09-12T20:39:50.877Z,17.20
2022-09-12T20:42:17.588Z,16.99
2022-09-12T20:44:43.885Z,17.03
2022-09-12T20:47:10.198Z,17.03
2022-09-12T20:49:36.636Z,17.03
2022-09-12T20:52:03.295Z,17.00
2022-09-12T20:54:30.910Z,16.84
2022-09-12T20:56:57.210Z,16.77
2022-09-12T20:59:23.729Z,16.70
2022-09-12T21:01:50.183Z,16.69
2022-09-12T21:04:16.692Z,16.60
2022-09-12T21:06:43.275Z,16.47
2022-09-12T21:09:09.654Z,16.50
2022-09-12T21:11:35.974Z,16.44
2022-09-12T21:14:02.356Z,16.41
2022-09-12T21:16:28.752Z,16.37
2022-09-12T21:18:57.993Z,16.27
2022-09-12T21:21:25.456Z,16.23
2022-09-12T21:23:51.799Z,16.20
2022-09-12T21:26:18.390Z,16.20
2022-09-12T21:28:44.756Z,16.24
2022-09-12T21:31:11.147Z,16.20
2022-09-12T21:33:37.585Z,16.21
2022-09-12T21:36:05.452Z,16.17
2022-09-12T21:38:32.892Z,16.19
2022-09-12T21:41:11.119Z,16.14
2022-09-12T21:43:38.166Z,16.14
2022-09-12T21:46:06.235Z,16.13
2022-09-12T21:48:33.076Z,16.13
2022-09-12T21:50:59.712Z,16.17
2022-09-12T21:53:26.478Z,16.10
2022-09-12T21:55:52.829Z,16.09
2022-09-12T21:58:19.497Z,16.19
2022-09-12T22:00:45.998Z,16.15
2022-09-12T22:03:12.623Z,16.17
2022-09-12T22:05:43.036Z,16.08
2022-09-12T22:08:10.664Z,16.11
2022-09-12T22:10:38.439Z,16.01
2022-09-12T22:13:05.203Z,15.96
2022-09-12T22:15:46.939Z,15.84
2022-09-12T22:18:13.371Z,15.78
2022-09-12T22:20:39.715Z,15.67
2022-09-12T22:23:25.258Z,15.65
2022-09-12T22:25:55.448Z,15.71
2022-09-12T22:28:22.495Z,15.66
2022-09-12T22:30:48.796Z,15.72
2022-09-12T22:33:15.183Z,15.64
2022-09-12T22:35:42.276Z,15.56
2022-09-12T22:38:08.958Z,15.56
2022-09-12T22:40:35.458Z,15.55
2022-09-12T22:43:02.207Z,15.46
2022-09-12T22:45:28.824Z,15.48
2022-09-12T22:47:57.170Z,15.46
2022-09-12T22:50:25.659Z,15.46
2022-09-12T22:52:52.417Z,15.35
2022-09-12T22:55:18.699Z,15.22
2022-09-12T22:57:45.026Z,15.15
2022-09-12T23:00:11.982Z,15.15
2022-09-12T23:02:38.306Z,15.20
2022-09-12T23:05:04.957Z,15.19
2022-09-12T23:07:31.401Z,15.18
2022-09-12T23:09:57.698Z,15.23
2022-09-12T23:12:24.061Z,15.19
2022-09-12T23:14:50.442Z,15.19
2022-09-12T23:17:16.916Z,15.11
2022-09-12T23:19:43.203Z,15.14
2022-09-12T23:22:09.529Z,15.06
2022-09-12T23:24:35.844Z,15.02
2022-09-12T23:27:02.124Z,15.02
2022-09-12T23:29:28.420Z,15.06
2022-09-12T23:31:55.384Z,15.16
2022-09-12T23:34:21.819Z,15.20
2022-09-12T23:36:48.137Z,15.11
2022-09-12T23:39:14.445Z,15.05
2022-09-12T23:41:40.732Z,15.22
2022-09-12T23:44:07.144Z,15.29
2022-09-12T23:46:33.914Z,15.21
2022-09-12T23:49:00.191Z,15.15
2022-09-12T23:51:26.805Z,14.98
2022-09-12T23:53:53.127Z,14.89
2022-09-12T23:56:19.493Z,14.91
2022-09-12T23:58:45.840Z,14.92
